createdAt,value
2023-03-20T00:02:24.044Z,62.04
2023-03-20T00:04:55.748Z,61.92
2023-03-20T00:07:25.101Z,61.76
2023-03-20T00:10:02.742Z,61.80
2023-03-20T00:12:51.977Z,62.08
2023-03-20T00:15:35.830Z,62.50
2023-03-20T00:18:05.193Z,62.96
2023-03-20T00:20:42.043Z,63.32
2023-03-20T00:23:13.793Z,63.50
2023-03-20T00:25:42.447Z,63.60
2023-03-20T00:28:34.969Z,63.55
2023-03-20T00:31:05.137Z,63.69
2023-03-20T00:33:33.166Z,64.07
2023-03-20T00:36:01.845Z,64.25
2023-03-20T00:38:33.364Z,64.38
2023-03-20T00:41:02.503Z,64.35
2023-03-20T00:43:32.623Z,64.25
2023-03-20T00:46:04.074Z,64.04
2023-03-20T00:48:33.173Z,64.09
2023-03-20T00:51:01.468Z,63.98
2023-03-20T00:53:29.691Z,63.80
2023-03-20T00:55:58.105Z,63.63
2023-03-20T00:58:32.021Z,63.33
2023-03-20T01:01:01.678Z,63.21
2023-03-20T01:03:32.234Z,63.13
2023-03-20T01:06:00.282Z,63.05
2023-03-20T01:08:30.094Z,63.17
2023-03-20T01:10:59.063Z,63.23
2023-03-20T01:13:28.546Z,63.62
2023-03-20T01:15:58.280Z,63.62
2023-03-20T01:18:27.478Z,63.53
2023-03-20T01:20:55.971Z,63.48
2023-03-20T01:23:27.019Z,63.57
2023-03-20T01:26:01.383Z,63.58
2023-03-20T01:28:29.772Z,63.52
2023-03-20T01:30:57.964Z,63.50
2023-03-20T01:33:47.006Z,63.67
2023-03-20T01:36:16.440Z,64.06
2023-03-20T01:38:44.637Z,63.96
2023-03-20T01:41:18.344Z,63.86
2023-03-20T01:43:46.580Z,63.68
2023-03-20T01:46:20.015Z,63.70
2023-03-20T01:48:50.281Z,63.84
2023-03-20T01:51:24.461Z,63.79
2023-03-20T01:53:55.296Z,63.79
2023-03-20T01:56:30.686Z,63.94
2023-03-20T01:59:03.679Z,63.89
2023-03-20T02:01:32.172Z,63.99
2023-03-20T02:04:01.452Z,64.06
2023-03-20T02:06:51.510Z,64.25
2023-03-20T02:09:37.860Z,64.53
2023-03-20T02:12:11.134Z,64.63
2023-03-20T02:14:39.533Z,64.72
2023-03-20T02:17:24.289Z,64.83
2023-03-20T02:20:28.749Z,65.00
2023-03-20T02:23:31.732Z,65.12
2023-03-20T02:26:22.799Z,65.27
2023-03-20T02:29:18.732Z,65.44
2023-03-20T02:31:54.423Z,65.62
2023-03-20T02:34:46.308Z,65.66
2023-03-20T02:37:38.983Z,65.61
2023-03-20T02:40:46.346Z,65.33
2023-03-20T02:43:38.187Z,65.34
2023-03-20T02:46:18.786Z,65.27
2023-03-20T02:48:55.843Z,65.26
2023-03-20T02:51:32.285Z,65.01
2023-03-20T02:54:06.611Z,64.85
2023-03-20T02:56:51.600Z,64.72
2023-03-20T02:59:41.583Z,64.71
2023-03-20T03:02:14.294Z,64.50
2023-03-20T03:04:47.659Z,64.18
2023-03-20T03:07:18.175Z,64.13
2023-03-20T03:09:58.532Z,64.04
2023-03-20T03:12:36.507Z,63.86
2023-03-20T03:15:16.487Z,63.63
2023-03-20T03:17:49.337Z,63.65
2023-03-20T03:20:35.172Z,63.79
2023-03-20T03:23:03.849Z,63.67
2023-03-20T03:25:37.654Z,63.85
2023-03-20T03:28:09.722Z,63.91
2023-03-20T03:30:38.716Z,64.04
2023-03-20T03:33:47.232Z,64.34
2023-03-20T03:36:36.422Z,64.64
2023-03-20T03:39:07.952Z,64.82
2023-03-20T03:41:45.972Z,65.07
2023-03-20T03:44:27.140Z,65.01
2023-03-20T03:47:02.939Z,64.93
2023-03-20T03:49:33.389Z,64.98
2023-03-20T03:52:13.916Z,65.04
2023-03-20T03:55:06.911Z,65.19
2023-03-20T03:57:38.144Z,65.29
2023-03-20T04:00:13.816Z,65.29
2023-03-20T04:02:43.584Z,65.35
2023-03-20T04:05:17.431Z,65.27
2023-03-20T04:07:47.893Z,65.09
2023-03-20T04:10:16.188Z,64.82
2023-03-20T04:12:55.496Z,64.62
2023-03-20T04:15:23.673Z,64.39
2023-03-20T04:17:52.062Z,64.43
2023-03-20T04:20:20.433Z,64.53
2023-03-20T04:22:49.245Z,64.58
2023-03-20T04:25:22.725Z,64.72
2023-03-20T04:27:54.091Z,64.96
2023-03-20T04:30:33.916Z,64.99
2023-03-20T04:33:29.275Z,65.13
2023-03-20T04:36:06.633Z,65.29
2023-03-20T04:50:30.473Z,64.86
2023-03-20T04:53:00.517Z,63.75
2023-03-20T04:55:29.998Z,63.73
2023-03-20T04:57:58.290Z,63.68
2023-03-20T05:00:27.652Z,63.83
2023-03-20T05:02:56.365Z,63.84
2023-03-20T05:05:25.869Z,63.95
2023-03-20T05:08:01.009Z,63.89
2023-03-20T05:10:37.677Z,63.85
2023-03-20T05:13:34.794Z,63.91
2023-03-20T05:16:23.015Z,63.94
2023-03-20T05:19:07.195Z,64.12
2023-03-20T05:21:55.939Z,64.16
2023-03-20T05:24:50.789Z,64.04
2023-03-20T05:27:38.205Z,63.89
2023-03-20T05:30:25.450Z,63.83
2023-03-20T05:32:59.910Z,63.85
2023-03-20T05:35:28.147Z,63.94
2023-03-20T05:38:13.399Z,64.06
2023-03-20T05:40:47.215Z,64.12
2023-03-20T05:43:29.453Z,64.20
2023-03-20T05:46:26.472Z,64.45
2023-03-20T05:49:18.116Z,64.80
2023-03-20T05:52:05.584Z,64.97
2023-03-20T05:54:44.274Z,64.84
2023-03-20T05:57:48.261Z,64.83
2023-03-20T06:00:48.985Z,64.67
2023-03-20T06:03:49.009Z,64.74
2023-03-20T06:06:18.820Z,64.74
2023-03-20T06:08:50.044Z,64.83
2023-03-20T06:11:19.125Z,64.86
2023-03-20T06:13:47.992Z,64.70
2023-03-20T06:16:16.495Z,64.28
2023-03-20T06:18:46.688Z,63.97
2023-03-20T06:21:15.969Z,64.04
2023-03-20T06:23:44.460Z,64.17
2023-03-20T06:26:13.236Z,64.01
2023-03-20T06:28:53.134Z,64.11
2023-03-20T06:31:22.187Z,64.24
2023-03-20T06:33:51.161Z,64.12
2023-03-20T06:36:19.749Z,64.11
2023-03-20T06:38:51.918Z,63.95
2023-03-20T06:41:33.764Z,63.92
2023-03-20T06:44:09.153Z,63.94
2023-03-20T06:46:56.650Z,63.95
2023-03-20T06:49:25.775Z,63.83
2023-03-20T06:51:54.262Z,63.52
2023-03-20T06:54:27.356Z,63.12
2023-03-20T06:56:56.348Z,62.68
2023-03-20T06:59:24.461Z,62.16
2023-03-20T07:01:57.426Z,61.75
2023-03-20T07:04:26.619Z,61.55
2023-03-20T07:07:01.735Z,61.45
2023-03-20T07:09:30.552Z,61.05
2023-03-20T07:11:58.915Z,60.84
2023-03-20T07:14:32.092Z,60.68
2023-03-20T07:17:05.801Z,60.35
2023-03-20T07:19:38.144Z,60.11
2023-03-20T07:22:08.607Z,60.01
2023-03-20T07:24:40.793Z,59.74
2023-03-20T07:27:14.689Z,59.53
2023-03-20T07:29:44.196Z,59.32
2023-03-20T07:32:14.423Z,59.17
2023-03-20T07:34:51.445Z,58.91
2023-03-20T07:37:21.149Z,58.65
2023-03-20T07:40:01.879Z,58.66
2023-03-20T07:42:56.663Z,58.75
2023-03-20T07:45:44.076Z,58.75
2023-03-20T07:48:13.184Z,58.66
2023-03-20T07:50:41.472Z,58.53
2023-03-20T07:53:10.872Z,58.11
2023-03-20T07:55:40.171Z,57.61
2023-03-20T07:58:11.412Z,57.05
2023-03-20T08:00:41.536Z,56.74
2023-03-20T08:03:10.244Z,56.42
2023-03-20T08:05:38.953Z,56.17
2023-03-20T08:08:08.112Z,55.72
2023-03-20T08:10:36.481Z,55.46
2023-03-20T08:13:05.316Z,55.08
2023-03-20T08:15:33.766Z,54.88
2023-03-20T08:18:02.187Z,54.44
2023-03-20T08:20:31.793Z,53.89
2023-03-20T08:23:00.640Z,53.51
2023-03-20T08:25:34.924Z,53.05
2023-03-20T08:28:03.946Z,52.55
2023-03-20T08:30:32.372Z,52.30
2023-03-20T08:33:02.512Z,51.99
2023-03-20T08:35:45.572Z,51.51
2023-03-20T08:38:15.815Z,51.01
2023-03-20T08:40:44.381Z,50.33
2023-03-20T08:43:12.758Z,49.84
2023-03-20T08:45:44.125Z,50.02
2023-03-20T08:48:13.308Z,49.84
2023-03-20T08:50:44.967Z,49.56
2023-03-20T08:53:13.382Z,49.26
2023-03-20T08:55:49.274Z,48.89
2023-03-20T08:58:18.524Z,48.63
2023-03-20T09:00:46.933Z,48.66
2023-03-20T09:03:16.478Z,48.38
2023-03-20T09:05:46.703Z,48.14
2023-03-20T09:08:15.181Z,47.79
2023-03-20T09:10:44.757Z,47.62
2023-03-20T09:13:26.589Z,47.61
2023-03-20T09:15:56.097Z,47.54
2023-03-20T09:18:24.594Z,47.07
2023-03-20T09:20:52.955Z,46.78
2023-03-20T09:23:21.332Z,46.70
2023-03-20T09:25:51.450Z,46.24
2023-03-20T09:28:20.480Z,45.77
2023-03-20T09:30:49.209Z,45.39
2023-03-20T09:33:18.944Z,45.07
2023-03-20T09:35:47.775Z,44.57
2023-03-20T09:38:16.164Z,44.18
2023-03-20T09:41:09.918Z,44.18
2023-03-20T09:43:54.144Z,44.19
2023-03-20T09:46:49.859Z,44.00
2023-03-20T09:49:52.973Z,43.93
2023-03-20T09:52:31.057Z,43.90
2023-03-20T09:55:02.755Z,44.12
2023-03-20T09:57:41.955Z,44.17
2023-03-20T10:00:25.112Z,44.25
2023-03-20T10:02:58.995Z,44.36
2023-03-20T10:05:36.361Z,44.26
2023-03-20T10:08:07.229Z,44.25
2023-03-20T10:10:46.429Z,44.13
2023-03-20T10:13:33.267Z,43.98
2023-03-20T10:16:08.522Z,44.13
2023-03-20T10:18:38.605Z,44.17
2023-03-20T10:21:15.906Z,44.08
2023-03-20T10:24:03.662Z,43.72
2023-03-20T10:26:34.751Z,43.12
2023-03-20T10:29:25.598Z,42.96
2023-03-20T10:32:42.074Z,42.80
2023-03-20T10:35:21.647Z,42.68
2023-03-20T10:38:13.346Z,42.70
2023-03-20T10:40:43.175Z,42.42
2023-03-20T10:43:21.780Z,42.11
2023-03-20T10:45:54.283Z,41.91
2023-03-20T10:48:41.180Z,41.68
2023-03-20T10:51:14.717Z,41.79
2023-03-20T10:53:43.318Z,41.77
2023-03-20T10:56:27.055Z,41.28
2023-03-20T10:59:04.604Z,40.77
2023-03-20T11:01:37.806Z,40.78
2023-03-20T11:04:07.628Z,40.82
2023-03-20T11:06:43.511Z,40.79
2023-03-20T11:09:21.338Z,40.35
2023-03-20T11:11:52.608Z,40.50
2023-03-20T11:14:26.115Z,40.69
2023-03-20T11:16:55.870Z,40.54
2023-03-20T11:19:24.202Z,40.60
2023-03-20T11:21:58.205Z,40.10
2023-03-20T11:24:38.578Z,40.05
2023-03-20T11:27:24.667Z,39.79
2023-03-20T11:29:53.162Z,39.33
2023-03-20T11:32:29.463Z,39.27
2023-03-20T11:35:11.126Z,39.17
2023-03-20T11:37:44.705Z,39.08
2023-03-20T11:40:12.884Z,38.21
2023-03-20T11:42:56.200Z,37.66
2023-03-20T11:45:25.823Z,37.73
2023-03-20T11:47:57.291Z,37.31
2023-03-20T11:50:38.305Z,37.22
2023-03-20T11:53:27.140Z,37.32
2023-03-20T11:56:08.489Z,37.30
2023-03-20T11:59:12.600Z,37.15
2023-03-20T12:01:52.557Z,37.28
2023-03-20T12:04:32.708Z,36.90
2023-03-20T12:07:21.158Z,36.34
2023-03-20T12:10:00.395Z,36.09
2023-03-20T12:13:13.155Z,35.30
2023-03-20T12:15:45.024Z,34.69
2023-03-20T12:18:33.034Z,35.07
2023-03-20T12:21:12.782Z,34.86
2023-03-20T12:23:48.068Z,34.77
2023-03-20T12:26:37.779Z,34.32
2023-03-20T12:29:11.281Z,34.23
2023-03-20T12:31:57.373Z,34.44
2023-03-20T12:34:38.555Z,34.29
2023-03-20T12:37:09.860Z,34.03
2023-03-20T12:39:41.585Z,34.14
2023-03-20T12:42:31.361Z,33.89
2023-03-20T12:45:18.821Z,33.66
2023-03-20T12:47:50.833Z,33.84
2023-03-20T12:50:33.463Z,34.14
2023-03-20T12:53:08.605Z,33.76
2023-03-20T12:56:05.656Z,33.97
2023-03-20T12:58:40.405Z,33.81
2023-03-20T13:01:21.056Z,33.47
2023-03-20T13:04:04.838Z,33.18
2023-03-20T13:06:55.684Z,33.09
2023-03-20T13:09:28.843Z,33.06
2023-03-20T13:12:21.452Z,33.00
2023-03-20T13:15:21.868Z,33.11
2023-03-20T13:18:04.773Z,32.14
2023-03-20T13:20:40.268Z,30.51
2023-03-20T13:23:23.582Z,29.27
2023-03-20T13:26:17.721Z,27.63
2023-03-20T13:29:01.054Z,27.16
2023-03-20T13:31:41.861Z,27.99
2023-03-20T13:34:30.051Z,29.08
2023-03-20T13:37:36.164Z,29.49
2023-03-20T13:40:13.461Z,28.52
2023-03-20T13:42:54.788Z,27.80
2023-03-20T13:45:39.668Z,26.10
2023-03-20T13:48:34.160Z,25.66
2023-03-20T13:51:14.354Z,25.00
2023-03-20T13:53:42.967Z,24.29
2023-03-20T13:56:31.994Z,23.50
2023-03-20T13:59:29.841Z,23.43
2023-03-20T14:02:13.231Z,24.14
2023-03-20T14:04:41.582Z,24.57
2023-03-20T14:07:31.444Z,24.85
2023-03-20T14:10:31.655Z,25.50
2023-03-20T14:13:20.612Z,25.88
2023-03-20T14:15:55.252Z,26.07
2023-03-20T14:18:25.099Z,26.14
2023-03-20T14:21:01.164Z,24.97
2023-03-20T14:23:34.300Z,25.56
2023-03-20T14:26:26.846Z,25.95
2023-03-20T14:28:59.739Z,26.14
2023-03-20T14:31:34.474Z,26.38
2023-03-20T14:34:18.404Z,26.45
2023-03-20T14:37:05.891Z,26.59
2023-03-20T14:39:49.159Z,27.04
2023-03-20T14:42:42.421Z,27.42
2023-03-20T14:45:42.795Z,27.49
2023-03-20T14:48:32.919Z,27.55
2023-03-20T14:51:10.023Z,27.50
2023-03-20T14:53:40.352Z,27.67
2023-03-20T14:56:14.715Z,28.52
2023-03-20T14:58:43.885Z,29.12
2023-03-20T15:01:19.721Z,29.50
2023-03-20T15:03:57.780Z,30.12
2023-03-20T15:06:27.353Z,30.46
2023-03-20T15:09:01.146Z,31.03
2023-03-20T15:11:29.486Z,31.49
2023-03-20T15:14:06.396Z,32.25
2023-03-20T15:16:36.688Z,32.68
2023-03-20T15:19:09.401Z,33.18
2023-03-20T15:21:45.047Z,33.95
2023-03-20T15:24:23.977Z,34.55
2023-03-20T15:26:53.742Z,35.23
2023-03-20T15:29:21.747Z,36.00
2023-03-20T15:32:13.021Z,36.74
2023-03-20T15:34:43.098Z,37.52
2023-03-20T15:37:16.399Z,38.20
2023-03-20T15:39:51.960Z,38.96
2023-03-20T15:42:21.751Z,39.67
2023-03-20T15:44:52.047Z,40.24
2023-03-20T15:47:22.412Z,40.80
2023-03-20T15:50:03.780Z,41.41
2023-03-20T15:52:53.416Z,42.09
2023-03-20T15:55:23.386Z,42.78
2023-03-20T15:57:54.153Z,43.32
2023-03-20T16:00:26.800Z,43.87
2023-03-20T16:02:55.426Z,44.19
2023-03-20T16:05:25.863Z,44.54
2023-03-20T16:07:54.208Z,44.90
2023-03-20T16:10:30.164Z,45.36
2023-03-20T16:12:58.420Z,45.63
2023-03-20T16:15:28.059Z,45.95
2023-03-20T16:17:57.841Z,46.23
2023-03-20T16:20:27.965Z,46.45
2023-03-20T16:23:00.231Z,46.85
2023-03-20T16:25:28.409Z,47.15
2023-03-20T16:27:56.688Z,47.45
2023-03-20T16:30:27.840Z,47.62
2023-03-20T16:33:02.531Z,47.91
2023-03-20T16:35:39.169Z,48.06
2023-03-20T16:38:40.579Z,48.28
2023-03-20T16:41:28.109Z,48.51
2023-03-20T16:43:57.126Z,48.76
2023-03-20T16:46:26.690Z,48.99
2023-03-20T16:48:59.085Z,49.26
2023-03-20T16:51:29.210Z,49.49
2023-03-20T16:53:59.524Z,49.62
2023-03-20T16:58:15.197Z,50.55
2023-03-20T17:00:46.377Z,50.24
2023-03-20T17:03:17.108Z,50.38
2023-03-20T17:05:51.723Z,50.54
2023-03-20T17:08:35.990Z,50.77
2023-03-20T17:11:10.810Z,50.87
2023-03-20T17:13:39.505Z,51.05
2023-03-20T17:16:18.005Z,51.27
2023-03-20T17:18:47.115Z,51.28
2023-03-20T17:21:16.714Z,51.48
2023-03-20T17:23:45.000Z,51.54
2023-03-20T17:26:13.180Z,51.79
2023-03-20T17:28:42.631Z,51.87
2023-03-20T17:31:15.366Z,52.01
2023-03-20T17:33:49.013Z,52.05
2023-03-20T17:36:28.700Z,52.27
2023-03-20T17:38:57.281Z,52.41
2023-03-20T17:41:25.772Z,52.42
2023-03-20T17:43:54.789Z,52.43
2023-03-20T17:46:30.829Z,52.57
2023-03-20T17:49:14.866Z,52.50
2023-03-20T17:51:43.345Z,52.59
2023-03-20T17:54:13.369Z,52.64
2023-03-20T17:56:42.676Z,52.67
2023-03-20T17:59:12.876Z,52.80
2023-03-20T18:01:42.237Z,52.96
2023-03-20T18:04:10.452Z,53.03
2023-03-20T18:06:41.518Z,53.09
2023-03-20T18:09:13.680Z,53.12
2023-03-20T18:11:41.747Z,53.26
2023-03-20T18:14:18.238Z,53.29
2023-03-20T18:16:46.646Z,53.52
2023-03-20T18:19:28.478Z,53.59
2023-03-20T18:21:57.141Z,53.71
2023-03-20T18:24:26.691Z,53.76
2023-03-20T18:26:59.990Z,53.88
2023-03-20T18:29:28.254Z,53.89
2023-03-20T18:31:56.718Z,53.99
2023-03-20T18:34:27.274Z,54.06
2023-03-20T18:36:55.973Z,54.25
2023-03-20T18:39:29.458Z,54.35
2023-03-20T18:41:57.837Z,54.71
2023-03-20T18:44:25.907Z,54.74
2023-03-20T18:46:54.398Z,54.79
2023-03-20T18:49:22.779Z,54.75
2023-03-20T18:51:54.220Z,54.84
2023-03-20T18:54:22.549Z,55.13
2023-03-20T18:56:56.610Z,55.57
2023-03-20T18:59:25.006Z,55.97
2023-03-20T19:01:53.627Z,56.17
2023-03-20T19:04:27.332Z,56.20
2023-03-20T19:06:57.397Z,56.28
2023-03-20T19:09:26.102Z,56.25
2023-03-20T19:11:55.798Z,56.25
2023-03-20T19:14:25.848Z,56.39
2023-03-20T19:16:58.495Z,56.35
2023-03-20T19:19:30.664Z,56.58
2023-03-20T19:21:59.141Z,56.52
2023-03-20T19:24:27.935Z,56.50
2023-03-20T19:26:57.250Z,56.54
2023-03-20T19:29:25.623Z,56.53
2023-03-20T19:31:54.813Z,56.70
2023-03-20T19:35:00.887Z,56.73
2023-03-20T19:37:17.638Z,56.90
2023-03-20T19:39:46.263Z,56.96
2023-03-20T19:42:44.332Z,57.12
2023-03-20T19:45:23.044Z,57.42
2023-03-20T19:47:53.625Z,57.72
2023-03-20T19:50:35.383Z,57.87
2023-03-20T19:53:05.634Z,57.92
2023-03-20T19:55:34.439Z,58.02
2023-03-20T19:58:03.396Z,57.99
2023-03-20T20:00:56.962Z,57.86
2023-03-20T20:03:24.204Z,58.02
2023-03-20T20:06:00.120Z,58.18
2023-03-20T20:08:44.757Z,58.09
2023-03-20T20:11:15.666Z,58.00
2023-03-20T20:16:33.464Z,57.89
2023-03-20T20:19:03.228Z,57.85
2023-03-20T20:22:17.141Z,57.80
2023-03-20T20:24:22.207Z,57.74
2023-03-20T20:27:14.682Z,57.84
2023-03-20T20:29:46.925Z,57.95
2023-03-20T20:32:15.876Z,58.04
2023-03-20T20:38:27.008Z,58.16
2023-03-20T20:40:25.416Z,58.32
2023-03-20T20:42:56.349Z,58.44
2023-03-20T20:45:26.549Z,58.47
2023-03-20T20:47:55.034Z,58.63
2023-03-20T20:50:25.253Z,58.83
2023-03-20T20:52:56.942Z,58.90
2023-03-20T20:55:25.769Z,58.99
2023-03-20T20:57:55.532Z,59.22
2023-03-20T21:00:37.193Z,59.34
2023-03-20T21:03:10.196Z,59.30
2023-03-20T21:05:43.350Z,59.29
2023-03-20T21:08:13.645Z,59.28
2023-03-20T21:10:44.013Z,59.33
2023-03-20T21:13:15.197Z,59.37
2023-03-20T21:15:45.686Z,59.43
2023-03-20T21:18:19.516Z,59.39
2023-03-20T21:20:47.546Z,59.37
2023-03-20T21:23:16.026Z,59.48
2023-03-20T21:25:47.842Z,59.51
2023-03-20T21:28:16.925Z,59.66
2023-03-20T21:31:12.601Z,59.66
2023-03-20T21:33:36.416Z,59.85
2023-03-20T21:36:06.131Z,59.85
2023-03-20T21:41:24.388Z,59.78
2023-03-20T21:43:52.667Z,59.90
2023-03-20T21:58:21.392Z,60.27
2023-03-20T22:03:35.148Z,60.19
2023-03-20T22:07:17.890Z,60.26
2023-03-20T22:12:30.275Z,60.45
2023-03-20T22:17:59.649Z,60.54
2023-03-20T22:26:51.402Z,60.59
2023-03-20T22:29:32.583Z,60.50
2023-03-20T22:35:12.842Z,60.35
2023-03-20T22:43:54.860Z,60.26
2023-03-20T22:46:03.409Z,60.17
2023-03-20T22:48:38.656Z,60.32
2023-03-20T22:51:08.092Z,60.66
2023-03-20T22:53:37.714Z,60.69
2023-03-20T22:56:07.519Z,60.70
2023-03-20T22:58:35.832Z,60.82
2023-03-20T23:01:04.217Z,60.69
2023-03-20T23:03:41.449Z,60.56
2023-03-20T23:06:21.316Z,60.56
2023-03-20T23:08:55.388Z,60.74
2023-03-20T23:11:26.571Z,60.89
2023-03-20T23:14:01.633Z,61.03
2023-03-20T23:16:30.971Z,61.03
2023-03-20T23:18:59.177Z,61.10
2023-03-20T23:21:32.372Z,61.14
2023-03-20T23:24:00.902Z,61.24
2023-03-20T23:26:29.136Z,61.40
2023-03-20T23:28:58.220Z,61.25
2023-03-20T23:31:27.143Z,61.11
2023-03-20T23:33:57.245Z,61.23
2023-03-20T23:36:42.493Z,61.27
2023-03-20T23:39:11.711Z,61.47
2023-03-20T23:44:30.479Z,61.55
2023-03-20T23:47:01.327Z,61.60
2023-03-20T23:49:32.155Z,61.46
2023-03-20T23:52:00.492Z,61.58
2023-03-20T23:54:28.709Z,61.42
2023-03-20T23:56:57.086Z,61.47
2023-03-20T23:59:25.569Z,61.43
